createdAt,value
2017-06-22T00:01:59.946Z,10.00
2017-06-22T00:04:29.000Z,12.23
2017-06-22T00:06:58.073Z,10.13
2017-06-22T00:09:27.144Z,11.23
2017-06-22T00:11:57.364Z,11.90
2017-06-22T00:14:26.387Z,12.77
2017-06-22T00:16:55.476Z,12.70
2017-06-22T00:19:24.531Z,10.57
2017-06-22T00:21:53.620Z,12.00
2017-06-22T00:24:22.675Z,11.20
2017-06-22T00:26:52.229Z,12.20
2017-06-22T00:29:21.309Z,13.10
2017-06-22T00:31:50.365Z,10.83
2017-06-22T00:34:19.486Z,12.03
2017-06-22T00:36:48.541Z,12.30
2017-06-22T00:39:17.607Z,10.60
2017-06-22T00:41:47.461Z,11.27
2017-06-22T00:44:16.712Z,10.73
2017-06-22T00:46:45.787Z,10.13
2017-06-22T00:49:14.887Z,9.60
2017-06-22T00:51:43.956Z,9.30
2017-06-22T00:54:13.044Z,10.47
2017-06-22T00:56:42.088Z,9.60
2017-06-22T00:59:11.182Z,8.97
2017-06-22T01:01:40.520Z,10.03
2017-06-22T01:04:09.589Z,11.27
2017-06-22T01:06:38.661Z,10.73
2017-06-22T01:09:07.740Z,9.50
2017-06-22T01:11:36.820Z,10.70
2017-06-22T01:14:05.865Z,10.33
2017-06-22T01:16:34.923Z,9.80
2017-06-22T01:19:04.028Z,9.93
2017-06-22T01:21:33.150Z,10.07
2017-06-22T01:24:02.226Z,10.67
2017-06-22T01:26:31.299Z,11.03
2017-06-22T01:29:00.503Z,10.20
2017-06-22T01:31:29.549Z,9.77
2017-06-22T01:33:59.384Z,11.27
2017-06-22T01:36:28.455Z,10.17
2017-06-22T01:38:58.288Z,10.20
2017-06-22T01:41:27.365Z,10.33
2017-06-22T01:43:57.195Z,11.93
2017-06-22T01:46:26.275Z,9.63
2017-06-22T01:48:56.093Z,9.63
2017-06-22T01:51:25.944Z,9.50
2017-06-22T01:53:55.035Z,10.00
2017-06-22T01:56:24.111Z,10.50
2017-06-22T01:58:53.169Z,10.83
2017-06-22T02:01:22.241Z,10.60
2017-06-22T02:03:51.505Z,10.80
2017-06-22T02:06:20.603Z,11.57
2017-06-22T02:08:49.656Z,10.87
2017-06-22T02:11:19.512Z,12.00
2017-06-22T02:13:48.576Z,11.27
2017-06-22T02:16:18.577Z,13.53
2017-06-22T02:18:47.647Z,11.50
2017-06-22T02:21:16.760Z,10.47
2017-06-22T02:23:45.791Z,11.50
2017-06-22T02:26:14.890Z,11.30
2017-06-22T02:28:44.262Z,10.93
2017-06-22T02:31:13.415Z,10.83
2017-06-22T02:33:42.484Z,13.33
2017-06-22T02:36:11.541Z,10.70
2017-06-22T02:38:40.646Z,10.47
2017-06-22T02:41:09.757Z,11.23
2017-06-22T02:43:38.824Z,11.70
2017-06-22T02:46:07.899Z,11.07
2017-06-22T02:48:36.965Z,12.43
2017-06-22T02:51:06.028Z,11.77
2017-06-22T02:53:35.856Z,10.00
2017-06-22T02:56:05.115Z,11.63
2017-06-22T02:58:34.197Z,11.60
2017-06-22T03:01:03.269Z,10.27
2017-06-22T03:03:32.449Z,11.60
2017-06-22T03:06:01.526Z,10.50
2017-06-22T03:08:31.356Z,11.87
2017-06-22T03:11:00.429Z,11.03
2017-06-22T03:13:30.301Z,9.53
2017-06-22T03:15:59.355Z,10.97
2017-06-22T03:18:28.404Z,9.90
2017-06-22T03:20:57.485Z,10.90
2017-06-22T03:23:26.544Z,10.67
2017-06-22T03:25:55.624Z,10.90
2017-06-22T03:28:25.484Z,10.50
2017-06-22T03:30:54.526Z,9.33
2017-06-22T03:33:24.349Z,11.60
2017-06-22T03:35:53.416Z,10.40
2017-06-22T03:38:22.776Z,10.43
2017-06-22T03:40:51.837Z,9.93
2017-06-22T03:43:21.677Z,10.40
2017-06-22T03:45:50.748Z,10.00
2017-06-22T03:48:19.815Z,8.80
2017-06-22T03:50:48.876Z,9.87
2017-06-22T03:53:17.956Z,9.50
2017-06-22T03:55:47.051Z,10.10
2017-06-22T03:58:16.136Z,9.93
2017-06-22T04:00:45.196Z,9.97
2017-06-22T04:03:14.515Z,9.50
2017-06-22T04:05:43.627Z,9.80
2017-06-22T04:08:12.735Z,9.90
2017-06-22T04:10:41.781Z,10.30
2017-06-22T04:13:10.885Z,9.20
2017-06-22T04:15:39.932Z,9.03
2017-06-22T04:18:09.001Z,9.00
2017-06-22T04:20:38.074Z,10.30
2017-06-22T04:23:07.162Z,9.80
2017-06-22T04:25:36.213Z,10.47
2017-06-22T04:28:05.323Z,9.70
2017-06-22T04:30:34.368Z,10.17
2017-06-22T04:33:03.492Z,10.47
2017-06-22T04:35:32.580Z,10.47
2017-06-22T04:38:01.624Z,10.13
2017-06-22T04:40:30.707Z,10.47
2017-06-22T04:42:59.814Z,10.47
2017-06-22T04:45:28.913Z,10.67
2017-06-22T04:47:57.964Z,11.80
2017-06-22T04:50:27.020Z,10.00
2017-06-22T04:52:56.106Z,10.77
2017-06-22T04:55:25.305Z,10.87
2017-06-22T04:57:54.384Z,10.20
2017-06-22T05:00:23.457Z,10.23
2017-06-22T05:02:52.536Z,13.37
2017-06-22T05:05:21.739Z,11.47
2017-06-22T05:07:50.807Z,10.80
2017-06-22T05:10:19.887Z,10.77
2017-06-22T05:12:49.083Z,11.03
2017-06-22T05:15:18.157Z,10.97
2017-06-22T05:17:47.235Z,11.23
2017-06-22T05:20:16.304Z,17.37
2017-06-22T05:22:45.367Z,10.70
2017-06-22T05:25:14.456Z,10.47
2017-06-22T05:27:43.516Z,11.17
2017-06-22T05:30:12.561Z,11.87
2017-06-22T05:32:41.636Z,13.90
2017-06-22T05:35:10.746Z,9.93
2017-06-22T05:37:39.796Z,9.53
2017-06-22T05:40:08.914Z,9.83
2017-06-22T05:42:37.957Z,10.37
2017-06-22T05:45:07.036Z,11.30
2017-06-22T05:47:36.120Z,10.70
2017-06-22T05:50:05.190Z,12.40
2017-06-22T05:52:34.286Z,10.07
2017-06-22T05:55:03.364Z,11.30
2017-06-22T05:57:32.408Z,10.93
2017-06-22T06:00:01.488Z,10.87
2017-06-22T06:02:30.576Z,10.13
2017-06-22T06:04:59.840Z,12.30
2017-06-22T06:07:28.916Z,10.50
2017-06-22T06:09:57.970Z,10.37
2017-06-22T06:12:27.058Z,11.07
2017-06-22T06:14:56.133Z,10.30
2017-06-22T06:17:25.179Z,10.23
2017-06-22T06:19:54.252Z,10.70
2017-06-22T06:22:23.346Z,10.40
2017-06-22T06:24:52.393Z,10.23
2017-06-22T06:27:21.482Z,9.67
2017-06-22T06:29:50.517Z,9.40
2017-06-22T06:32:19.585Z,11.13
2017-06-22T06:34:48.777Z,10.60
2017-06-22T06:37:17.844Z,11.03
2017-06-22T06:39:46.895Z,9.80
2017-06-22T06:42:15.985Z,12.03
2017-06-22T06:44:45.045Z,9.90
2017-06-22T06:47:14.156Z,9.97
2017-06-22T06:49:43.219Z,9.80
2017-06-22T06:52:12.297Z,9.83
2017-06-22T06:54:41.362Z,12.30
2017-06-22T06:57:10.421Z,9.10
2017-06-22T06:59:39.469Z,10.30
2017-06-22T07:02:08.542Z,9.97
2017-06-22T07:04:37.633Z,9.40
2017-06-22T07:07:06.736Z,9.40
2017-06-22T07:09:35.775Z,9.90
2017-06-22T07:12:04.831Z,8.87
2017-06-22T07:14:33.929Z,8.77
2017-06-22T07:17:03.019Z,11.83
2017-06-22T07:19:32.084Z,8.87
2017-06-22T07:22:01.168Z,9.53
2017-06-22T07:24:30.228Z,9.10
2017-06-22T07:26:59.303Z,9.30
2017-06-22T07:29:28.380Z,9.70
2017-06-22T07:31:57.449Z,9.20
2017-06-22T07:34:26.528Z,9.73
2017-06-22T07:36:55.590Z,9.10
2017-06-22T07:39:24.636Z,9.60
2017-06-22T07:41:53.683Z,9.50
2017-06-22T07:44:22.764Z,8.73
2017-06-22T07:46:51.812Z,9.20
2017-06-22T07:49:20.860Z,8.70
2017-06-22T07:51:49.945Z,9.07
2017-06-22T07:54:19.021Z,14.60
2017-06-22T07:56:48.057Z,8.83
2017-06-22T07:59:17.141Z,9.23
2017-06-22T08:01:46.425Z,8.30
2017-06-22T08:04:15.496Z,8.50
2017-06-22T08:06:44.551Z,11.60
2017-06-22T08:09:13.607Z,9.37
2017-06-22T08:11:42.675Z,9.47
2017-06-22T08:14:11.755Z,9.23
2017-06-22T08:16:40.795Z,10.20
2017-06-22T08:19:09.855Z,8.40
2017-06-22T08:21:38.892Z,9.23
2017-06-22T08:24:08.089Z,8.27
2017-06-22T08:26:37.134Z,9.23
2017-06-22T08:29:06.211Z,8.47
2017-06-22T08:31:35.274Z,9.87
2017-06-22T08:34:04.337Z,9.53
2017-06-22T08:36:33.415Z,10.67
2017-06-22T08:39:02.436Z,9.30
2017-06-22T08:41:31.497Z,9.60
2017-06-22T08:44:00.576Z,10.67
2017-06-22T08:46:29.628Z,10.40
2017-06-22T08:48:58.715Z,10.73
2017-06-22T08:51:27.767Z,10.70
2017-06-22T08:53:56.839Z,10.47
2017-06-22T08:56:25.932Z,9.40
2017-06-22T08:58:54.996Z,10.53
2017-06-22T09:01:24.099Z,10.50
2017-06-22T09:03:53.156Z,10.30
2017-06-22T09:06:23.856Z,10.30
2017-06-22T09:08:52.908Z,10.97
2017-06-22T09:11:22.227Z,9.60
2017-06-22T09:13:51.335Z,10.07
2017-06-22T09:16:20.524Z,11.00
2017-06-22T09:18:49.592Z,10.53
2017-06-22T09:21:18.655Z,9.90
2017-06-22T09:23:47.717Z,10.60
2017-06-22T09:26:16.779Z,10.30
2017-06-22T09:28:45.835Z,10.17
2017-06-22T09:31:14.921Z,11.00
2017-06-22T09:33:43.980Z,11.00
2017-06-22T09:36:13.036Z,10.13
2017-06-22T09:38:43.116Z,10.53
2017-06-22T09:41:12.175Z,10.80
2017-06-22T09:43:41.212Z,9.90
2017-06-22T09:46:10.509Z,10.13
2017-06-22T09:48:39.568Z,11.63
2017-06-22T09:51:08.709Z,12.37
2017-06-22T09:53:37.736Z,10.67
2017-06-22T09:56:06.824Z,10.33
2017-06-22T09:58:35.934Z,11.07
2017-06-22T10:01:04.979Z,10.30
2017-06-22T10:03:34.064Z,10.20
2017-06-22T10:06:03.123Z,10.60
2017-06-22T10:08:32.184Z,10.97
2017-06-22T10:11:01.270Z,11.50
2017-06-22T10:13:30.328Z,10.87
2017-06-22T10:15:59.505Z,11.27
2017-06-22T10:18:28.581Z,10.60
2017-06-22T10:20:57.644Z,11.53
2017-06-22T10:23:26.700Z,11.70
2017-06-22T10:25:55.779Z,10.73
2017-06-22T10:28:24.832Z,11.13
2017-06-22T10:30:53.891Z,11.57
2017-06-22T10:33:22.981Z,11.30
2017-06-22T10:35:52.065Z,11.20
2017-06-22T10:38:21.106Z,11.20
2017-06-22T10:40:50.188Z,12.00
2017-06-22T10:43:19.272Z,11.80
2017-06-22T10:45:48.335Z,11.70
2017-06-22T10:48:17.375Z,12.40
2017-06-22T10:50:46.467Z,11.60
2017-06-22T10:53:15.531Z,12.70
2017-06-22T10:55:44.592Z,12.93
2017-06-22T10:58:13.904Z,13.53
2017-06-22T11:00:43.013Z,12.50
2017-06-22T11:03:12.077Z,13.93
2017-06-22T11:05:41.185Z,12.47
2017-06-22T11:08:10.250Z,12.90
2017-06-22T11:10:39.301Z,12.33
2017-06-22T11:13:08.395Z,13.30
2017-06-22T11:15:37.455Z,12.93
2017-06-22T11:18:06.520Z,12.73
2017-06-22T11:20:35.572Z,13.60
2017-06-22T11:23:04.692Z,13.97
2017-06-22T11:25:33.763Z,12.90
2017-06-22T11:28:02.840Z,13.67
2017-06-22T11:30:31.897Z,15.83
2017-06-22T11:33:00.980Z,13.67
2017-06-22T11:35:30.046Z,14.63
2017-06-22T11:37:59.092Z,16.03
2017-06-22T11:40:28.187Z,13.80
2017-06-22T11:42:57.231Z,13.83
2017-06-22T11:45:26.305Z,13.50
2017-06-22T11:47:55.360Z,14.47
2017-06-22T11:50:24.678Z,14.17
2017-06-22T11:52:53.736Z,15.97
2017-06-22T11:55:22.811Z,14.10
2017-06-22T11:57:51.976Z,13.97
2017-06-22T12:00:21.029Z,15.60
2017-06-22T12:02:50.096Z,13.70
2017-06-22T12:05:19.170Z,14.00
2017-06-22T12:07:48.249Z,13.00
2017-06-22T12:10:17.342Z,13.77
2017-06-22T12:12:46.388Z,13.80
2017-06-22T12:15:15.480Z,13.80
2017-06-22T12:17:44.568Z,13.50
2017-06-22T12:20:13.707Z,15.30
2017-06-22T12:22:42.739Z,13.40
2017-06-22T12:25:11.885Z,13.30
2017-06-22T12:27:40.928Z,14.57
2017-06-22T12:30:10.084Z,14.30
2017-06-22T12:32:39.159Z,13.70
2017-06-22T12:35:08.295Z,13.10
2017-06-22T12:37:37.336Z,12.93
2017-06-22T12:40:06.593Z,14.17
2017-06-22T12:42:35.724Z,14.53
2017-06-22T12:45:04.808Z,13.80
2017-06-22T12:47:33.860Z,15.57
2017-06-22T12:50:02.948Z,16.20
2017-06-22T12:52:32.001Z,14.43
2017-06-22T12:55:01.083Z,14.37
2017-06-22T12:57:30.151Z,15.00
2017-06-22T12:59:59.243Z,15.07
2017-06-22T13:02:28.296Z,15.13
2017-06-22T13:04:57.352Z,14.03
2017-06-22T13:07:26.425Z,14.43
2017-06-22T13:09:56.405Z,16.73
2017-06-22T13:12:25.496Z,15.20
2017-06-22T13:14:54.564Z,15.90
2017-06-22T13:17:23.624Z,15.77
2017-06-22T13:19:52.684Z,14.53
2017-06-22T13:22:21.745Z,14.27
2017-06-22T13:24:50.819Z,14.53
2017-06-22T13:27:19.883Z,14.73
2017-06-22T13:29:48.944Z,15.07
2017-06-22T13:32:18.023Z,14.03
2017-06-22T13:34:47.111Z,14.00
2017-06-22T13:37:16.226Z,14.87
2017-06-22T13:39:45.288Z,13.93
2017-06-22T13:42:14.384Z,16.00
2017-06-22T13:44:43.677Z,14.37
2017-06-22T13:47:12.795Z,14.00
2017-06-22T13:49:41.873Z,14.27
2017-06-22T13:52:11.016Z,13.70
2017-06-22T13:54:40.067Z,13.43
2017-06-22T13:57:09.133Z,13.97
2017-06-22T13:59:38.212Z,13.93
2017-06-22T14:02:07.274Z,15.33
2017-06-22T14:04:36.344Z,13.70
2017-06-22T14:07:05.403Z,14.03
2017-06-22T14:09:34.456Z,15.13
2017-06-22T14:12:03.587Z,16.10
2017-06-22T14:14:32.611Z,14.10
2017-06-22T14:17:01.724Z,14.37
2017-06-22T14:19:30.907Z,13.43
2017-06-22T14:21:59.958Z,13.73
2017-06-22T14:27:27.744Z,13.43
2017-06-22T14:29:56.839Z,14.67
2017-06-22T14:32:26.538Z,14.73
2017-06-22T14:34:55.623Z,14.60
2017-06-22T14:37:24.737Z,15.53
2017-06-22T14:39:53.787Z,13.20
2017-06-22T14:42:22.848Z,14.83
2017-06-22T14:44:51.925Z,15.50
2017-06-22T14:47:20.997Z,14.30
2017-06-22T14:49:50.086Z,14.27
2017-06-22T14:52:19.151Z,14.60
2017-06-22T14:54:48.984Z,13.73
2017-06-22T14:57:18.062Z,14.60
2017-06-22T14:59:47.157Z,14.50
2017-06-22T15:02:17.011Z,14.37
2017-06-22T15:04:46.089Z,15.37
2017-06-22T15:07:15.231Z,15.67
2017-06-22T15:09:44.289Z,15.17
2017-06-22T15:12:13.406Z,15.07
2017-06-22T15:14:42.476Z,16.00
2017-06-22T15:17:11.554Z,14.43
2017-06-22T15:19:41.390Z,14.80
2017-06-22T15:22:10.484Z,13.40
2017-06-22T15:24:40.592Z,16.03
2017-06-22T15:27:09.927Z,13.83
2017-06-22T15:29:39.004Z,14.20
2017-06-22T15:32:08.381Z,14.73
2017-06-22T15:34:37.469Z,14.23
2017-06-22T15:37:06.594Z,14.53
2017-06-22T15:39:35.644Z,15.03
2017-06-22T15:42:04.864Z,13.77
2017-06-22T15:44:33.957Z,14.43
2017-06-22T15:47:03.751Z,15.63
2017-06-22T15:49:33.607Z,13.40
2017-06-22T15:52:02.656Z,14.30
2017-06-22T15:54:32.273Z,14.70
2017-06-22T15:57:02.099Z,14.20
2017-06-22T15:59:31.200Z,15.13
2017-06-22T16:02:00.279Z,14.43
2017-06-22T16:04:30.084Z,13.70
2017-06-22T16:06:59.936Z,13.83
2017-06-22T16:09:28.976Z,15.10
2017-06-22T16:11:58.813Z,15.90
2017-06-22T16:14:27.987Z,14.40
2017-06-22T16:16:57.808Z,15.17
2017-06-22T16:19:27.687Z,14.40
2017-06-22T16:21:56.741Z,14.00
2017-06-22T16:24:26.628Z,15.00
2017-06-22T16:26:55.711Z,14.47
2017-06-22T16:29:24.745Z,15.10
2017-06-22T16:31:53.835Z,16.47
2017-06-22T16:34:22.912Z,15.93
2017-06-22T16:36:52.728Z,15.00
2017-06-22T16:39:21.804Z,15.70
2017-06-22T16:41:50.889Z,15.40
2017-06-22T16:44:19.956Z,15.60
2017-06-22T16:46:50.259Z,15.87
2017-06-22T16:49:19.384Z,14.97
2017-06-22T16:51:48.428Z,18.10
2017-06-22T16:54:17.816Z,15.40
2017-06-22T16:56:46.873Z,14.80
2017-06-22T16:59:15.911Z,14.23
2017-06-22T17:01:45.745Z,14.13
2017-06-22T17:04:14.911Z,12.07
2017-06-22T17:06:43.944Z,13.60
2017-06-22T17:09:13.031Z,15.07
2017-06-22T17:11:42.119Z,15.27
2017-06-22T17:14:11.324Z,15.47
2017-06-22T17:16:40.364Z,15.00
2017-06-22T17:19:09.460Z,17.23
2017-06-22T17:21:38.515Z,16.00
2017-06-22T17:24:07.615Z,14.70
2017-06-22T17:26:36.684Z,13.80
2017-06-22T17:29:06.537Z,15.20
2017-06-22T17:31:35.577Z,15.77
2017-06-22T17:34:05.423Z,13.63
2017-06-22T17:36:34.486Z,15.00
2017-06-22T17:39:04.622Z,13.97
2017-06-22T17:41:33.687Z,13.67
2017-06-22T17:44:02.842Z,16.57
2017-06-22T17:46:31.893Z,14.03
2017-06-22T17:49:01.499Z,13.13
2017-06-22T17:51:30.584Z,13.80
2017-06-22T17:53:59.645Z,13.70
2017-06-22T17:56:28.960Z,12.10
2017-06-22T17:58:58.814Z,11.63
2017-06-22T18:01:28.664Z,18.37
2017-06-22T18:03:57.717Z,11.00
2017-06-22T18:06:27.604Z,12.30
2017-06-22T18:08:56.635Z,10.80
2017-06-22T18:11:25.701Z,11.20
2017-06-22T18:13:54.812Z,17.97
2017-06-22T18:16:24.644Z,9.70
2017-06-22T18:18:54.485Z,12.30
2017-06-22T18:21:23.549Z,10.07
2017-06-22T18:23:52.701Z,10.43
2017-06-22T18:26:21.752Z,9.07
2017-06-22T18:28:50.836Z,12.03
2017-06-22T18:31:19.917Z,10.30
2017-06-22T18:33:49.869Z,12.13
2017-06-22T18:36:18.940Z,8.40
2017-06-22T18:38:48.785Z,9.53
2017-06-22T18:41:17.873Z,9.50
2017-06-22T18:43:46.945Z,15.33
2017-06-22T18:46:16.009Z,11.13
2017-06-22T18:48:45.097Z,14.93
2017-06-22T18:51:14.163Z,11.77
2017-06-22T18:53:43.256Z,7.57
2017-06-22T18:56:12.354Z,10.40
2017-06-22T18:58:41.692Z,12.93
2017-06-22T19:01:10.783Z,8.63
2017-06-22T19:03:39.851Z,10.03
2017-06-22T19:06:08.954Z,14.07
2017-06-22T19:08:37.998Z,8.67
2017-06-22T19:11:07.852Z,9.70
2017-06-22T19:13:36.950Z,13.60
2017-06-22T19:16:06.004Z,11.10
2017-06-22T19:18:35.078Z,12.77
2017-06-22T19:21:04.936Z,12.60
2017-06-22T19:23:33.962Z,13.80
2017-06-22T19:26:03.327Z,15.00
2017-06-22T19:28:32.409Z,14.53
2017-06-22T19:31:01.524Z,13.87
2017-06-22T19:33:30.596Z,11.93
2017-06-22T19:36:00.415Z,12.33
2017-06-22T19:38:29.480Z,18.57
2017-06-22T19:40:58.521Z,20.33
2017-06-22T19:43:27.628Z,16.40
2017-06-22T19:45:56.703Z,17.93
2017-06-22T19:48:25.775Z,16.97
2017-06-22T19:50:54.860Z,17.63
2017-06-22T19:53:24.684Z,19.23
2017-06-22T19:55:53.768Z,23.43
2017-06-22T19:58:23.620Z,18.70
2017-06-22T20:00:52.684Z,20.10
2017-06-22T20:03:21.764Z,19.17
2017-06-22T20:05:51.615Z,22.00
2017-06-22T20:08:20.680Z,20.80
2017-06-22T20:10:50.518Z,17.70
2017-06-22T20:13:19.590Z,19.50
2017-06-22T20:15:49.451Z,20.10
2017-06-22T20:18:18.516Z,20.93
2017-06-22T20:20:47.565Z,20.03
2017-06-22T20:23:16.660Z,22.90
2017-06-22T20:25:45.716Z,27.00
2017-06-22T20:28:14.804Z,22.70
2017-06-22T20:30:43.907Z,21.03
2017-06-22T20:33:12.976Z,24.27
2017-06-22T20:35:42.056Z,21.90
2017-06-22T20:38:11.901Z,26.73
2017-06-22T20:40:41.712Z,26.60
2017-06-22T20:43:11.178Z,24.43
2017-06-22T20:45:40.247Z,22.20
2017-06-22T20:48:09.608Z,20.20
2017-06-22T20:50:39.424Z,23.93
2017-06-22T20:53:08.495Z,25.60
2017-06-22T20:55:38.325Z,20.43
2017-06-22T20:58:07.504Z,21.67
2017-06-22T21:00:37.284Z,25.50
2017-06-22T21:03:06.576Z,24.37
2017-06-22T21:05:35.928Z,20.67
2017-06-22T21:08:05.099Z,25.60
2017-06-22T21:10:34.297Z,22.10
2017-06-22T21:13:03.510Z,20.63
2017-06-22T21:15:32.553Z,23.00
2017-06-22T21:18:01.653Z,24.77
2017-06-22T21:20:30.740Z,23.07
2017-06-22T21:23:00.216Z,22.77
2017-06-22T21:25:29.280Z,15.83
2017-06-22T21:27:59.924Z,20.33
2017-06-22T21:30:29.916Z,27.37
2017-06-22T21:32:59.003Z,19.93
2017-06-22T21:35:28.082Z,20.27
2017-06-22T21:37:57.133Z,20.50
2017-06-22T21:40:26.213Z,16.33
2017-06-22T21:42:55.264Z,18.77
2017-06-22T21:45:24.327Z,20.90
2017-06-22T21:47:53.399Z,22.13
2017-06-22T21:50:23.212Z,20.57
2017-06-22T21:52:53.047Z,21.03
2017-06-22T21:55:22.339Z,21.90
2017-06-22T21:57:51.398Z,16.87
2017-06-22T22:00:20.501Z,18.23
2017-06-22T22:02:50.337Z,18.03
2017-06-22T22:05:19.454Z,16.90
2017-06-22T22:07:49.273Z,20.57
2017-06-22T22:10:18.345Z,20.00
2017-06-22T22:12:47.409Z,16.63
2017-06-22T22:15:16.475Z,18.27
2017-06-22T22:17:45.619Z,20.10
2017-06-22T22:20:14.951Z,19.93
2017-06-22T22:22:44.020Z,17.40
2017-06-22T22:25:13.137Z,18.27
2017-06-22T22:27:42.212Z,22.80
2017-06-22T22:30:11.316Z,20.07
2017-06-22T22:32:40.666Z,28.97
2017-06-22T22:35:09.736Z,18.70
2017-06-22T22:37:38.814Z,22.47
2017-06-22T22:40:08.000Z,27.10
2017-06-22T22:42:37.831Z,18.87
2017-06-22T22:45:07.166Z,24.43
2017-06-22T22:47:36.250Z,16.93
2017-06-22T22:50:05.329Z,16.83
2017-06-22T22:52:34.407Z,16.90
2017-06-22T22:55:03.517Z,19.03
2017-06-22T22:57:32.566Z,17.10
2017-06-22T23:00:02.429Z,20.13
2017-06-22T23:02:31.501Z,15.33
2017-06-22T23:05:00.583Z,23.50
2017-06-22T23:07:29.665Z,20.97
2017-06-22T23:09:58.729Z,21.23
2017-06-22T23:12:27.823Z,19.53
2017-06-22T23:14:56.873Z,19.93
2017-06-22T23:17:26.687Z,15.67
2017-06-22T23:19:55.773Z,15.77
2017-06-22T23:22:24.852Z,17.53
2017-06-22T23:24:53.915Z,20.77
2017-06-22T23:27:22.988Z,17.13
2017-06-22T23:29:52.031Z,17.17
2017-06-22T23:32:21.127Z,14.93
2017-06-22T23:34:50.191Z,17.17
2017-06-22T23:37:19.251Z,17.73
2017-06-22T23:39:48.324Z,25.63
2017-06-22T23:42:18.156Z,18.23
2017-06-22T23:44:47.275Z,18.23
2017-06-22T23:47:16.704Z,18.20
2017-06-22T23:49:45.770Z,18.10
2017-06-22T23:52:14.909Z,21.23
2017-06-22T23:54:43.980Z,21.23
2017-06-22T23:57:13.085Z,22.10
2017-06-22T23:59:42.174Z,18.50
